Time;durP1;ratioP1;P1;durP2;ratioP2;P2;SDS_P1;SDS_P2;PMS_P1;PMS_P2;Temp;Humidity;BMP_temperature;BMP_pressure;BME280_temperature;BME280_humidity;BME280_pressure;Samples;Min_cycle;Max_cycle;Signal;HPM_P1;HPM_P2
2022/01/23 00:00:04;;;;;;;24.17;8.73;;;-2.90;99.90;;;;;;10449968;28;20063;-82
2022/01/23 00:05:07;;;;;;;20.42;7.43;;;-3.00;99.90;;;;;;10429910;28;20056;-84
2022/01/23 00:10:10;;;;;;;18.10;7.43;;;-3.20;99.90;;;;;;10449484;28;20053;-81
2022/01/23 00:20:30;;;;;;;24.83;7.97;;;-3.40;99.90;;;;;;10418064;28;20060;-82
2022/01/23 00:30:52;;;;;;;23.57;8.37;;;-3.60;99.90;;;;;;10445238;28;20489;-83
2022/01/23 00:35:54;;;;;;;26.73;9.87;;;-3.60;99.90;;;;;;10446033;28;20052;-81
2022/01/23 00:40:55;;;;;;;31.13;11.30;;;-3.60;99.90;;;;;;10444975;28;20436;-82
2022/01/23 00:46:08;;;;;;;26.00;10.10;;;-3.50;99.90;;;;;;10448538;28;20041;-82
2022/01/23 00:51:09;;;;;;;33.17;10.40;;;-3.40;99.90;;;;;;10448973;28;20029;-82
2022/01/23 00:56:09;;;;;;;36.10;12.77;;;-3.30;99.90;;;;;;10448311;28;20021;-82
2022/01/23 01:01:11;;;;;;;25.97;10.03;;;-3.30;99.90;;;;;;10429857;28;20025;-83
2022/01/23 01:06:12;;;;;;;31.23;9.83;;;-3.30;99.90;;;;;;10447867;28;20060;-84
2022/01/23 01:16:51;;;;;;;28.37;9.97;;;-3.20;99.90;;;;;;10418003;28;20119;-83
2022/01/23 01:32:41;;;;;;;24.83;12.23;;;-3.20;99.90;;;;;;10454556;28;20579;-83
2022/01/23 01:37:42;;;;;;;30.67;11.20;;;-3.20;99.90;;;;;;10437644;28;20392;-85
2022/01/23 01:42:45;;;;;;;28.73;11.50;;;-3.20;99.90;;;;;;10436507;28;20060;-85
2022/01/23 01:47:50;;;;;;;28.43;12.63;;;-3.20;99.90;;;;;;10454541;28;20040;-84
2022/01/23 01:52:51;;;;;;;33.78;11.40;;;-3.20;99.90;;;;;;10436455;28;20123;-83
2022/01/23 01:57:55;;;;;;;31.40;12.23;;;-3.30;99.90;;;;;;10453728;28;20029;-83
2022/01/23 02:08:23;;;;;;;25.27;12.23;;;-3.40;99.90;;;;;;10454308;28;20040;-82
2022/01/23 02:13:34;;;;;;;29.67;11.57;;;-3.40;99.90;;;;;;10452516;28;20099;-82
2022/01/23 02:55:28;;;;;;;44.23;15.90;;;-3.30;99.90;;;;;;10451381;28;20044;-82
2022/01/23 03:00:35;;;;;;;37.00;14.00;;;-3.40;99.90;;;;;;10426128;28;20044;-82
2022/01/23 03:05:39;;;;;;;30.07;13.90;;;-3.40;99.90;;;;;;10451260;28;20036;-82
2022/01/23 03:10:44;;;;;;;30.10;14.10;;;-3.40;99.90;;;;;;10417369;28;20557;-83
2022/01/23 03:31:20;;;;;;;35.73;15.97;;;-3.60;99.90;;;;;;10449592;28;20051;-82
2022/01/23 03:36:21;;;;;;;31.70;14.97;;;-3.60;99.90;;;;;;10449926;28;20032;-83
2022/01/23 03:41:21;;;;;;;42.30;17.07;;;-3.60;99.90;;;;;;10449676;28;20025;-82
2022/01/23 03:51:43;;;;;;;40.30;16.83;;;-3.90;99.90;;;;;;10417985;28;20048;-84
2022/01/23 03:56:44;;;;;;;40.97;16.17;;;-4.00;99.90;;;;;;10449550;28;20036;-82
2022/01/23 04:01:45;;;;;;;32.63;15.07;;;-4.00;99.90;;;;;;10430458;28;20036;-82
2022/01/23 04:06:45;;;;;;;51.13;21.67;;;-4.00;99.90;;;;;;10449312;28;20392;-85
2022/01/23 04:11:47;;;;;;;45.33;18.37;;;-3.90;99.90;;;;;;10431211;28;20580;-81
2022/01/23 04:33:43;;;;;;;53.43;25.80;;;-3.70;99.90;;;;;;10448143;28;20045;-83
2022/01/23 05:04:34;;;;;;;50.30;21.40;;;-3.50;99.90;;;;;;10456095;28;20044;-80
2022/01/23 05:09:35;;;;;;;46.43;21.27;;;-3.50;99.90;;;;;;10456597;28;20112;-81
2022/01/23 05:14:41;;;;;;;46.20;21.43;;;-3.50;99.90;;;;;;10441959;28;20061;-84
2022/01/23 05:19:42;;;;;;;44.33;20.03;;;-3.40;99.90;;;;;;10450776;28;20094;-82
2022/01/23 05:25:02;;;;;;;48.03;21.00;;;-3.50;99.90;;;;;;10452372;28;20081;-80
2022/01/23 05:30:05;;;;;;;55.03;21.07;;;-3.50;99.90;;;;;;10452918;28;20025;-80
2022/01/23 05:35:08;;;;;;;47.27;21.47;;;-3.50;99.90;;;;;;10454769;28;20063;-82
2022/01/23 05:40:12;;;;;;;53.73;21.77;;;-3.50;99.90;;;;;;10454507;28;20633;-81
2022/01/23 05:45:13;;;;;;;59.67;23.67;;;-3.50;99.90;;;;;;10440009;28;20029;-81
2022/01/23 05:50:14;;;;;;;47.20;21.20;;;-3.50;99.90;;;;;;10444943;28;20045;-81
2022/01/23 05:55:15;;;;;;;47.47;20.80;;;-3.40;99.90;;;;;;10453276;28;20032;-82
2022/01/23 06:00:16;;;;;;;47.43;20.20;;;-3.40;99.90;;;;;;10444963;28;20032;-81
2022/01/23 06:05:17;;;;;;;46.10;20.67;;;-3.40;99.90;;;;;;10448568;28;20056;-82
2022/01/23 06:10:26;;;;;;;50.57;20.73;;;-3.40;99.90;;;;;;10452506;28;20051;-81
2022/01/23 06:15:27;;;;;;;45.27;20.73;;;-3.30;99.90;;;;;;10452113;28;20057;-80
2022/01/23 06:20:28;;;;;;;59.00;24.30;;;-3.30;99.90;;;;;;10453501;28;20033;-81
2022/01/23 06:25:33;;;;;;;70.23;28.20;;;-3.30;99.90;;;;;;10453991;28;20107;-81
2022/01/23 06:30:34;;;;;;;61.80;25.37;;;-3.20;99.90;;;;;;10453043;28;20035;-79
2022/01/23 06:35:35;;;;;;;65.03;26.90;;;-3.20;99.90;;;;;;10453186;28;20041;-79
2022/01/23 06:40:36;;;;;;;59.83;26.37;;;-3.20;99.90;;;;;;10452697;28;20016;-81
2022/01/23 06:45:37;;;;;;;60.47;26.20;;;-3.20;99.90;;;;;;10453144;28;20027;-80
2022/01/23 06:50:37;;;;;;;52.87;24.87;;;-3.20;99.90;;;;;;10453136;28;20385;-79
2022/01/23 06:55:38;;;;;;;52.33;22.53;;;-3.20;99.90;;;;;;10452320;28;20021;-79
2022/01/23 07:00:39;;;;;;;54.60;22.67;;;-3.20;99.90;;;;;;10434551;28;20025;-80
2022/01/23 07:05:39;;;;;;;42.90;20.30;;;-3.10;99.90;;;;;;10451707;28;20103;-80
2022/01/23 07:10:40;;;;;;;49.70;20.73;;;-3.10;99.90;;;;;;10434091;28;20099;-79
2022/01/23 07:15:41;;;;;;;43.63;18.30;;;-3.00;99.90;;;;;;10451268;28;20068;-81
2022/01/23 07:20:42;;;;;;;42.23;17.50;;;-2.90;99.90;;;;;;10450611;28;20083;-80
2022/01/23 07:25:43;;;;;;;49.90;22.43;;;-2.80;99.90;;;;;;10450846;28;20528;-80
2022/01/23 07:30:51;;;;;;;56.37;23.10;;;-2.70;99.90;;;;;;10450661;28;20040;-82
2022/01/23 07:35:51;;;;;;;48.70;22.93;;;-2.70;99.90;;;;;;10441445;28;20029;-80
2022/01/23 07:40:52;;;;;;;61.33;26.53;;;-2.60;99.90;;;;;;10428829;28;20028;-80
2022/01/23 07:45:53;;;;;;;60.83;28.33;;;-2.50;99.90;;;;;;10427623;28;20478;-79
2022/01/23 07:50:53;;;;;;;165.67;74.43;;;-2.40;99.90;;;;;;10429439;28;20111;-84
2022/01/23 07:55:54;;;;;;;142.43;60.20;;;-2.30;99.90;;;;;;10422361;28;20037;-80
2022/01/23 08:00:55;;;;;;;116.77;54.00;;;-2.30;99.90;;;;;;10449579;28;20036;-81
2022/01/23 08:05:56;;;;;;;112.13;48.40;;;-2.20;99.90;;;;;;10442816;28;20396;-81
2022/01/23 08:10:56;;;;;;;80.07;37.90;;;-2.10;99.90;;;;;;10450263;28;20127;-79
2022/01/23 08:15:57;;;;;;;79.47;33.40;;;-2.10;99.90;;;;;;10449932;28;20143;-81
2022/01/23 08:20:58;;;;;;;108.37;52.13;;;-2.00;99.90;;;;;;10449269;28;20031;-80
2022/01/23 08:25:58;;;;;;;67.47;29.60;;;-1.80;99.90;;;;;;10450348;28;20029;-82
2022/01/23 08:30:59;;;;;;;69.80;29.17;;;-1.70;99.90;;;;;;10450006;28;20495;-80
2022/01/23 08:36:00;;;;;;;93.03;40.50;;;-1.60;99.90;;;;;;10440348;28;20044;-82
2022/01/23 08:46:20;;;;;;;132.77;52.37;;;-1.40;99.90;;;;;;10457607;28;20144;-80
2022/01/23 08:51:20;;;;;;;85.37;37.67;;;-1.40;99.90;;;;;;10456551;28;20103;-81
2022/01/23 08:56:21;;;;;;;73.13;32.67;;;-1.30;99.90;;;;;;10456759;28;20141;-80
2022/01/23 09:01:23;;;;;;;100.30;41.17;;;-1.20;99.90;;;;;;10450764;28;20492;-80
2022/01/23 09:06:24;;;;;;;75.30;31.83;;;-1.10;99.90;;;;;;10413400;28;20037;-81
2022/01/23 09:11:37;;;;;;;59.93;26.70;;;-1.00;99.90;;;;;;10414723;28;20504;-81
2022/01/23 09:16:40;;;;;;;49.27;22.43;;;-0.90;99.90;;;;;;10416196;28;20497;-83
2022/01/23 09:21:41;;;;;;;57.80;24.60;;;-0.80;99.90;;;;;;10431173;28;20026;-81
2022/01/23 09:26:41;;;;;;;45.77;21.10;;;-0.60;99.90;;;;;;10415970;28;20030;-81
2022/01/23 09:31:49;;;;;;;43.90;21.20;;;-0.50;99.90;;;;;;10455332;28;20555;-81
2022/01/23 09:36:51;;;;;;;49.53;22.40;;;-0.40;99.90;;;;;;10455829;28;20021;-82
2022/01/23 09:42:04;;;;;;;44.03;20.93;;;-0.20;99.90;;;;;;10454618;28;20139;-80
2022/01/23 09:47:05;;;;;;;47.13;19.33;;;0.00;99.90;;;;;;10455063;28;20112;-80
2022/01/23 09:52:08;;;;;;;44.23;21.53;;;0.20;99.90;;;;;;10454728;28;20116;-79
2022/01/23 09:57:10;;;;;;;42.90;19.87;;;0.30;99.90;;;;;;10454738;28;20029;-80
2022/01/23 10:02:11;;;;;;;40.93;18.10;;;0.50;99.90;;;;;;10454670;28;20081;-80
2022/01/23 10:07:12;;;;;;;35.60;16.27;;;0.50;99.90;;;;;;10453282;28;20066;-80
2022/01/23 10:12:13;;;;;;;37.27;16.37;;;0.50;99.90;;;;;;10433015;28;20103;-80
2022/01/23 10:17:14;;;;;;;30.67;14.67;;;0.50;99.90;;;;;;10436679;28;20440;-80
2022/01/23 10:22:15;;;;;;;39.77;17.10;;;0.50;99.90;;;;;;10435312;28;20104;-80
2022/01/23 10:27:17;;;;;;;40.17;17.23;;;0.40;99.90;;;;;;10428285;28;20033;-80
2022/01/23 10:32:21;;;;;;;30.97;14.63;;;0.40;99.90;;;;;;10430153;28;20421;-82
2022/01/23 10:37:26;;;;;;;32.67;16.20;;;0.30;99.90;;;;;;10422877;28;20499;-80
2022/01/23 10:47:51;;;;;;;37.77;16.63;;;0.70;99.90;;;;;;10410733;28;20083;-81
2022/01/23 10:52:53;;;;;;;36.07;16.30;;;0.60;99.90;;;;;;10411078;28;20599;-80
2022/01/23 10:58:01;;;;;;;37.40;18.13;;;0.60;99.90;;;;;;10390171;28;20393;-80
2022/01/23 11:03:16;;;;;;;44.00;19.30;;;0.60;99.90;;;;;;10409082;28;20017;-83
2022/01/23 11:08:20;;;;;;;46.70;20.67;;;0.70;99.90;;;;;;10410001;28;20064;-80
2022/01/23 11:19:00;;;;;;;47.70;19.93;;;0.80;99.90;;;;;;10410837;28;20076;-81
2022/01/23 11:24:01;;;;;;;36.47;17.70;;;0.80;99.90;;;;;;10409940;28;20404;-80
2022/01/23 11:29:10;;;;;;;37.93;18.60;;;0.70;99.90;;;;;;10410279;28;20112;-80
2022/01/23 11:34:13;;;;;;;35.97;18.07;;;0.70;99.90;;;;;;10409671;28;20045;-80
2022/01/23 11:39:22;;;;;;;36.20;16.53;;;0.80;99.90;;;;;;10409537;28;20038;-80
2022/01/23 11:55:03;;;;;;;41.40;18.80;;;0.90;99.90;;;;;;10408798;28;20482;-82
2022/01/23 12:00:19;;;;;;;38.23;17.93;;;1.00;99.90;;;;;;10408854;28;20040;-80
2022/01/23 12:05:22;;;;;;;;;;;1.00;99.90;;;;;;10390996;28;20091;-80
2022/01/23 12:10:30;;;;;;;36.80;15.50;;;1.10;99.90;;;;;;10408830;28;20531;-80
2022/01/23 12:20:52;;;;;;;34.50;15.30;;;1.30;99.90;;;;;;10433113;28;20041;-80
2022/01/23 12:25:55;;;;;;;32.30;16.40;;;1.20;99.90;;;;;;10416108;28;20036;-82
2022/01/23 12:31:17;;;;;;;27.50;14.47;;;1.10;99.90;;;;;;10420820;28;20037;-81
2022/01/23 12:36:25;;;;;;;32.67;14.83;;;1.20;99.90;;;;;;10431949;28;20037;-80
2022/01/23 12:41:32;;;;;;;33.60;13.80;;;1.30;99.90;;;;;;10447596;28;20033;-79
2022/01/23 12:46:36;;;;;;;29.67;13.83;;;1.40;99.90;;;;;;10443644;28;20100;-81
2022/01/23 12:51:38;;;;;;;31.20;13.63;;;1.40;99.90;;;;;;10430189;28;20128;-80
2022/01/23 12:56:44;;;;;;;26.97;13.50;;;1.20;99.90;;;;;;10439593;28;20091;-80
2022/01/23 13:01:46;;;;;;;32.45;13.48;;;1.10;99.90;;;;;;10428111;28;20100;-81
2022/01/23 13:06:55;;;;;;;33.00;15.00;;;1.00;99.90;;;;;;10446606;28;20021;-81
2022/01/23 13:33:49;;;;;;;26.53;12.57;;;0.80;99.90;;;;;;10425682;28;20049;-80
2022/01/23 13:38:54;;;;;;;30.20;13.90;;;0.70;99.90;;;;;;10452561;28;20033;-80
2022/01/23 14:04:42;;;;;;;34.43;15.03;;;0.60;99.90;;;;;;10437421;28;20461;-82
2022/01/23 14:09:44;;;;;;;33.20;15.33;;;0.60;99.90;;;;;;10415733;28;20056;-80
2022/01/23 14:15:08;;;;;;;44.57;16.90;;;0.50;99.90;;;;;;10431153;28;20053;-81
2022/01/23 14:20:13;;;;;;;35.60;15.90;;;0.40;99.90;;;;;;10416370;28;20060;-85
2022/01/23 14:25:18;;;;;;;39.37;15.63;;;0.30;99.90;;;;;;10432648;28;20033;-82
2022/01/23 14:30:21;;;;;;;47.37;17.67;;;0.20;99.90;;;;;;10430930;28;20044;-81
2022/01/23 14:35:29;;;;;;;37.47;16.07;;;0.10;99.90;;;;;;10444557;28;20036;-82
2022/01/23 14:40:30;;;;;;;44.53;17.20;;;0.10;99.90;;;;;;10439820;28;20076;-81
2022/01/23 14:45:34;;;;;;;42.27;17.87;;;0.00;99.90;;;;;;10448739;28;20036;-81
2022/01/23 14:50:39;;;;;;;47.30;19.50;;;0.00;99.90;;;;;;10448961;28;20168;-84
2022/01/23 14:55:43;;;;;;;38.83;18.50;;;-0.10;99.90;;;;;;10449616;28;20021;-81
2022/01/23 15:00:44;;;;;;;43.77;19.77;;;-0.10;99.90;;;;;;10450144;28;20108;-81
2022/01/23 15:05:45;;;;;;;41.80;18.40;;;-0.10;99.90;;;;;;10430133;28;20124;-81
2022/01/23 15:10:48;;;;;;;48.07;19.30;;;-0.20;99.90;;;;;;10451753;28;20041;-80
2022/01/23 15:15:54;;;;;;;51.33;21.33;;;-0.20;99.90;;;;;;10451246;28;20064;-80
2022/01/23 15:20:54;;;;;;;38.20;15.68;;;-0.20;99.90;;;;;;10448965;28;20112;-82
2022/01/23 15:25:56;;;;;;;51.70;20.67;;;-0.20;99.90;;;;;;10449229;28;20032;-79
2022/01/23 15:30:56;;;;;;;81.27;32.53;;;-0.20;99.90;;;;;;10435771;28;20511;-82
2022/01/23 15:35:57;;;;;;;58.83;25.20;;;-0.20;99.90;;;;;;10447763;28;20024;-80
2022/01/23 15:40:58;;;;;;;49.73;21.70;;;-0.20;99.90;;;;;;10447893;28;20101;-80
2022/01/23 15:45:59;;;;;;;56.37;22.70;;;-0.20;99.90;;;;;;10449854;28;20071;-80
2022/01/23 15:51:02;;;;;;;54.70;23.07;;;-0.30;99.90;;;;;;10449193;28;20033;-80
2022/01/23 15:56:03;;;;;;;56.53;24.67;;;-0.30;99.90;;;;;;10449186;28;20029;-83
2022/01/23 16:01:04;;;;;;;60.90;23.53;;;-0.30;99.90;;;;;;10448564;28;20045;-83
2022/01/23 16:06:05;;;;;;;49.87;21.43;;;-0.30;99.90;;;;;;10449211;28;20028;-80
2022/01/23 16:11:07;;;;;;;55.97;23.70;;;-0.30;99.90;;;;;;10449034;28;20384;-82
2022/01/23 16:16:08;;;;;;;62.10;27.37;;;-0.30;99.90;;;;;;10421190;28;20055;-83
2022/01/23 16:21:11;;;;;;;59.57;24.90;;;-0.30;99.90;;;;;;10431168;28;20057;-82
2022/01/23 16:26:13;;;;;;;68.73;27.17;;;-0.30;99.90;;;;;;10443314;28;20021;-82
2022/01/23 16:31:14;;;;;;;65.93;26.00;;;-0.30;99.90;;;;;;10448186;28;20040;-83
2022/01/23 16:36:15;;;;;;;64.20;28.27;;;-0.30;99.90;;;;;;10448353;28;20068;-80
2022/01/23 16:41:16;;;;;;;64.00;25.70;;;-0.30;99.90;;;;;;10428789;28;20132;-81
2022/01/23 16:46:18;;;;;;;66.50;27.63;;;-0.30;99.90;;;;;;10446992;28;20021;-82
2022/01/23 16:51:19;;;;;;;56.90;26.93;;;-0.30;99.90;;;;;;10445113;28;20041;-81
2022/01/23 16:56:19;;;;;;;49.00;23.33;;;-0.30;99.90;;;;;;10455234;28;20033;-84
2022/01/23 17:01:20;;;;;;;66.57;28.00;;;-0.30;99.90;;;;;;10435755;28;20045;-81
2022/01/23 17:06:21;;;;;;;58.07;25.93;;;-0.30;99.90;;;;;;10452775;28;20036;-83
2022/01/23 17:11:23;;;;;;;63.80;27.73;;;-0.30;99.90;;;;;;10443989;28;20041;-81
2022/01/23 17:16:23;;;;;;;63.43;29.23;;;-0.30;99.90;;;;;;10453510;28;20092;-82
2022/01/23 17:21:25;;;;;;;73.73;31.43;;;-0.30;99.90;;;;;;10454189;28;20797;-79
2022/01/23 17:26:27;;;;;;;72.33;28.90;;;-0.30;99.90;;;;;;10440555;28;20025;-82
2022/01/23 17:31:27;;;;;;;63.60;26.40;;;-0.30;99.90;;;;;;10453110;28;20035;-79
2022/01/23 17:36:28;;;;;;;62.73;27.53;;;-0.40;99.90;;;;;;10436488;28;20024;-80
2022/01/23 17:41:29;;;;;;;60.23;26.83;;;-0.40;99.90;;;;;;10431637;28;20025;-81
2022/01/23 17:46:33;;;;;;;61.53;27.63;;;-0.50;99.90;;;;;;10448551;28;20494;-81
2022/01/23 17:51:34;;;;;;;65.30;29.20;;;-0.50;99.90;;;;;;10454654;28;20399;-79
2022/01/23 17:56:35;;;;;;;80.43;32.93;;;-0.50;99.90;;;;;;10453313;28;20037;-80
2022/01/23 18:01:36;;;;;;;80.13;34.57;;;-0.60;99.90;;;;;;10452647;28;20025;-79
2022/01/23 18:06:39;;;;;;;76.17;33.20;;;-0.50;99.90;;;;;;10451873;28;20116;-79
2022/01/23 18:11:40;;;;;;;67.40;29.77;;;-0.50;99.90;;;;;;10452095;28;20029;-80
2022/01/23 18:16:41;;;;;;;150.13;54.43;;;-0.50;99.90;;;;;;10453204;28;20412;-79
2022/01/23 18:21:42;;;;;;;185.10;63.67;;;-0.60;99.90;;;;;;10452597;28;20033;-80
2022/01/23 18:26:46;;;;;;;103.27;38.00;;;-0.50;99.90;;;;;;10451971;28;20037;-82
2022/01/23 18:31:47;;;;;;;101.87;40.40;;;-0.60;99.90;;;;;;10451763;28;20119;-81
2022/01/23 18:36:48;;;;;;;97.60;40.17;;;-0.60;99.90;;;;;;10451521;28;20103;-80
2022/01/23 18:41:49;;;;;;;86.40;36.13;;;-0.60;99.90;;;;;;10414620;28;20037;-80
2022/01/23 18:46:50;;;;;;;167.90;66.67;;;-0.60;99.90;;;;;;10450670;28;20025;-82
2022/01/23 18:52:00;;;;;;;87.67;38.03;;;-0.70;99.90;;;;;;10424397;28;20038;-82
2022/01/23 18:57:06;;;;;;;96.40;41.30;;;-0.70;99.90;;;;;;10451809;28;20465;-80
2022/01/23 19:02:07;;;;;;;91.65;39.65;;;-0.70;99.90;;;;;;10450343;28;20025;-80
2022/01/23 19:12:26;;;;;;;130.97;54.00;;;-0.70;99.90;;;;;;10450811;28;20057;-83
2022/01/23 19:17:27;;;;;;;140.27;57.43;;;-0.70;99.90;;;;;;10449534;28;20074;-82
2022/01/23 19:22:29;;;;;;;146.70;61.73;;;-0.80;99.90;;;;;;10450601;28;20112;-81
2022/01/23 19:27:33;;;;;;;145.30;62.80;;;-0.80;99.90;;;;;;10450559;28;20114;-80
2022/01/23 19:32:34;;;;;;;187.10;79.53;;;-0.80;99.90;;;;;;10449328;28;20041;-81
2022/01/23 19:37:35;;;;;;;181.37;78.90;;;-0.80;99.90;;;;;;10449515;28;20067;-81
2022/01/23 19:42:57;;;;;;;146.07;63.30;;;-0.80;99.90;;;;;;10428648;28;20546;-81
2022/01/23 19:48:14;;;;;;;175.87;76.87;;;-0.80;99.90;;;;;;10441388;28;20041;-81
2022/01/23 19:53:15;;;;;;;164.60;71.90;;;-0.90;99.90;;;;;;10449299;28;20040;-81
2022/01/23 19:58:16;;;;;;;163.20;68.47;;;-0.90;99.90;;;;;;10449370;28;20033;-81
2022/01/23 20:03:18;;;;;;;159.33;66.33;;;-0.90;99.90;;;;;;10448430;28;20377;-81
2022/01/23 20:08:21;;;;;;;168.50;73.23;;;-1.00;99.90;;;;;;10439459;28;20035;-81
2022/01/23 20:25:59;;;;;;;132.77;58.50;;;-1.30;99.90;;;;;;10405853;28;20049;-82
2022/01/23 20:31:00;;;;;;;138.10;56.97;;;-1.60;99.90;;;;;;10424629;28;20032;-81
2022/01/23 20:42:25;;;;;;;139.70;54.93;;;-2.00;99.90;;;;;;10318682;28;20498;-85
2022/01/23 20:48:22;;;;;;;;;;;;;;;;;;;;;
2022/01/23 21:00:06;;;;;;;152.93;58.07;;;-2.00;99.90;;;;;;10386706;28;20744;-83
2022/01/23 21:05:07;;;;;;;154.30;63.00;;;-2.20;99.90;;;;;;10444077;28;20037;-81
2022/01/23 21:10:10;;;;;;;165.27;60.97;;;-2.30;99.90;;;;;;10447631;28;20037;-83
2022/01/23 21:21:23;;;;;;;152.93;61.93;;;-2.40;99.90;;;;;;10410716;28;20025;-81
2022/01/23 21:42:22;;;;;;;112.60;48.13;;;-2.40;99.90;;;;;;10453970;28;20041;-81
2022/01/23 21:47:23;;;;;;;102.63;46.43;;;-2.40;99.90;;;;;;10453567;28;20021;-81
2022/01/23 21:52:24;;;;;;;148.73;59.93;;;-2.50;99.90;;;;;;10455421;28;20037;-81
2022/01/23 21:57:24;;;;;;;164.13;68.50;;;-2.40;99.90;;;;;;10453889;28;20382;-81
2022/01/23 22:02:25;;;;;;;205.57;84.77;;;-2.50;99.90;;;;;;10448165;28;20531;-82
2022/01/23 22:07:25;;;;;;;165.93;68.60;;;-2.40;99.90;;;;;;10444669;28;20393;-83
2022/01/23 22:17:27;;;;;;;278.43;116.80;;;-2.90;99.90;;;;;;10452098;28;20040;-85
2022/01/23 22:22:44;;;;;;;263.23;111.03;;;-3.00;99.90;;;;;;10434777;28;20392;-81
2022/01/23 22:27:44;;;;;;;272.40;108.50;;;-3.10;99.90;;;;;;10447213;28;20049;-83
2022/01/23 22:32:45;;;;;;;256.57;112.90;;;-3.30;99.90;;;;;;10412235;28;20041;-81
2022/01/23 22:37:49;;;;;;;296.73;126.33;;;-3.30;99.90;;;;;;10404400;28;20033;-82
2022/01/23 22:42:50;;;;;;;308.00;126.13;;;-3.50;99.90;;;;;;10452758;28;20025;-81
2022/01/23 22:47:51;;;;;;;318.07;130.23;;;-3.60;99.90;;;;;;10451587;28;20476;-83
2022/01/23 22:52:51;;;;;;;284.10;122.10;;;-3.60;99.90;;;;;;10452618;28;20029;-84
2022/01/23 22:57:52;;;;;;;288.13;115.27;;;-3.40;99.90;;;;;;10445403;28;20040;-80
2022/01/23 23:02:52;;;;;;;268.13;108.53;;;-3.40;99.90;;;;;;10452138;28;20491;-81
2022/01/23 23:07:53;;;;;;;255.07;105.30;;;-3.60;99.90;;;;;;10451110;28;20488;-82
2022/01/23 23:12:53;;;;;;;273.20;110.10;;;-3.80;99.90;;;;;;10424373;28;20041;-81
2022/01/23 23:17:54;;;;;;;261.97;110.83;;;-3.90;99.90;;;;;;10433338;28;20115;-81
2022/01/23 23:22:54;;;;;;;276.97;117.47;;;-4.00;99.90;;;;;;10447228;28;20041;-80
2022/01/23 23:27:55;;;;;;;276.63;114.17;;;-4.00;99.90;;;;;;10409078;28;20054;-81
2022/01/23 23:32:56;;;;;;;260.23;111.93;;;-4.00;99.90;;;;;;10414095;28;20045;-81
2022/01/23 23:37:56;;;;;;;255.27;109.93;;;-4.00;99.90;;;;;;10394607;28;20065;-80
2022/01/23 23:43:17;;;;;;;248.70;106.30;;;-4.00;99.90;;;;;;10417757;28;20037;-82
2022/01/23 23:48:18;;;;;;;231.77;96.57;;;-4.00;99.90;;;;;;10414691;28;20022;-81
2022/01/23 23:53:20;;;;;;;214.43;86.97;;;-4.10;99.90;;;;;;10395939;28;20435;-80
2022/01/23 23:58:21;;;;;;;215.40;87.90;;;-4.20;99.90;;;;;;10411448;28;20072;-83
